PWSweather.com
Personal Weather Stations
Station Observations
BREDONHILL
Bredon Hill Academy, EveshamGB

Bredon Hill AcademyEveshamGB

Lat: 52.04280019999999, Lon: -2.0048821000000316

Elevation: 247

Station Type: Davis Vantage Pro 2

Latest ConditionsUpdated 10:45:00 AM GMT Sunday, Feb 17, 2019
Currently Today's Max Today's Min Today's Average
Temperature 51.7°F10.9°C 52.2°F11.2°C 45.0°F7.2°C 47.7°F8.7°C
Dew Point 0.6°F-17.4°C 14.4°F-9.8°C -50.6°F-45.9°C -38.0°F-38.9°C
Winds 11.0 mph S17.7 kmh S 14.0 mph -22.5 kmh - - 9.5 mph 15.3 kmh
Wind Gusts 16.0 mph25.7 kmh 24.0 mph38.6 kmh - -
Humidity 12% 22% 1% 4%
Pressure 29.89 in1012.2 mb 30.05 in1017.6 mb 29.87 in1011.5 mb -
Hour Temp Dew Point Humidity Winds Wind Gusts Pressure Precip Precip Rate Daily Precip Total
10:45 AM 51.7°F10.9°C 0.6°F-17.4°C 12% 11.0 mph S17.7 kmh S 16.0 mph25.7 kmh 29.89 in1012.2 mb 0.00 in0.0 mm 0.00 in0.0 mm 0.00 in0.0 mm
10:40 AM 51.6°F10.9°C 3.9°F-15.6°C 14% 10.0 mph S16.1 kmh S 16.0 mph25.7 kmh 29.89 in1012.2 mb 0.00 in0.0 mm 0.00 in0.0 mm 0.00 in0.0 mm
10:35 AM 51.6°F10.9°C 8.1°F-13.3°C 17% 11.0 mph S17.7 kmh S 18.0 mph29.0 kmh 29.89 in1012.2 mb 0.00 in0.0 mm 0.00 in0.0 mm 0.00 in0.0 mm
10:30 AM 51.7°F10.9°C 9.5°F-12.5°C 18% 11.0 mph SSW17.7 kmh SSW 18.0 mph29.0 kmh 29.89 in1012.2 mb 0.00 in0.0 mm 0.00 in0.0 mm 0.00 in0.0 mm
10:25 AM 51.8°F11.0°C 10.8°F-11.8°C 19% 10.0 mph SSW16.1 kmh SSW 18.0 mph29.0 kmh 29.89 in1012.2 mb 0.00 in0.0 mm 0.00 in0.0 mm 0.00 in0.0 mm
10:20 AM 51.9°F11.1°C 12.0°F-11.1°C 20% 10.0 mph SSW16.1 kmh SSW 17.0 mph27.4 kmh 29.89 in1012.2 mb 0.00 in0.0 mm 0.00 in0.0 mm 0.00 in0.0 mm
10:15 AM 52.0°F11.1°C 13.2°F-10.4°C 21% 9.0 mph SSW14.5 kmh SSW 17.0 mph27.4 kmh 29.89 in1012.2 mb 0.00 in0.0 mm 0.00 in0.0 mm 0.00 in0.0 mm
10:10 AM 52.0°F11.1°C 14.3°F-9.8°C 22% 9.0 mph SSW14.5 kmh SSW 21.0 mph33.8 kmh 29.89 in1012.2 mb 0.00 in0.0 mm 0.00 in0.0 mm 0.00 in0.0 mm
10:05 AM 52.1°F11.2°C 14.4°F-9.8°C 22% 9.0 mph SSW14.5 kmh SSW 21.0 mph33.8 kmh 29.89 in1012.2 mb 0.00 in0.0 mm 0.00 in0.0 mm 0.00 in0.0 mm
10:00 AM 52.2°F11.2°C 12.3°F-10.9°C 20% 10.0 mph SSW16.1 kmh SSW 22.0 mph35.4 kmh 29.89 in1012.2 mb 0.00 in0.0 mm 0.00 in0.0 mm 0.00 in0.0 mm
09:55 AM 52.1°F11.2°C 11.0°F-11.7°C 19% 10.0 mph SSW16.1 kmh SSW 22.0 mph35.4 kmh 29.89 in1012.2 mb 0.00 in0.0 mm 0.00 in0.0 mm 0.00 in0.0 mm
09:50 AM 51.8°F11.0°C 9.6°F-12.4°C 18% 10.0 mph SSW16.1 kmh SSW 17.0 mph27.4 kmh 29.88 in1011.9 mb 0.00 in0.0 mm 0.00 in0.0 mm 0.00 in0.0 mm
09:45 AM 51.6°F10.9°C 8.1°F-13.3°C 17% 9.0 mph S14.5 kmh S 17.0 mph27.4 kmh 29.88 in1011.9 mb 0.00 in0.0 mm 0.00 in0.0 mm 0.00 in0.0 mm
09:40 AM 51.2°F10.7°C 5.0°F-15.0°C 15% 7.0 mph S11.3 kmh S 14.0 mph22.5 kmh 29.88 in1011.9 mb 0.00 in0.0 mm 0.00 in0.0 mm 0.00 in0.0 mm
09:35 AM 51.0°F10.6°C 4.9°F-15.1°C 15% 3.0 mph S4.8 kmh S 10.0 mph16.1 kmh 29.88 in1011.9 mb 0.00 in0.0 mm 0.00 in0.0 mm 0.00 in0.0 mm
09:30 AM 51.0°F10.6°C 1.8°F-16.8°C 13% 2.0 mph SE3.2 kmh SE 6.0 mph9.7 kmh 29.88 in1011.9 mb 0.00 in0.0 mm 0.00 in0.0 mm 0.00 in0.0 mm
09:25 AM 50.8°F10.4°C -0.1°F-17.8°C 12% 3.0 mph SE4.8 kmh SE 6.0 mph9.7 kmh 29.88 in1011.9 mb 0.00 in0.0 mm 0.00 in0.0 mm 0.00 in0.0 mm
09:20 AM 50.4°F10.2°C -2.3°F-19.1°C 11% 2.0 mph SE3.2 kmh SE 6.0 mph9.7 kmh 29.88 in1011.9 mb 0.00 in0.0 mm 0.00 in0.0 mm 0.00 in0.0 mm
09:15 AM 50.1°F10.1°C -2.5°F-19.2°C 11% 3.0 mph SE4.8 kmh SE 7.0 mph11.3 kmh 29.88 in1011.9 mb 0.00 in0.0 mm 0.00 in0.0 mm 0.00 in0.0 mm
09:10 AM 49.9°F9.9°C 0.9°F-17.3°C 13% 4.0 mph SSE6.4 kmh SSE 9.0 mph14.5 kmh 29.88 in1011.9 mb 0.00 in0.0 mm 0.00 in0.0 mm 0.00 in0.0 mm
09:05 AM 50.1°F10.1°C 4.2°F-15.4°C 15% 5.0 mph S8.0 kmh S 11.0 mph17.7 kmh 29.88 in1011.9 mb 0.00 in0.0 mm 0.00 in0.0 mm 0.00 in0.0 mm
09:00 AM 50.4°F10.2°C 4.4°F-15.3°C 15% 6.0 mph S9.7 kmh S 11.0 mph17.7 kmh 29.88 in1011.9 mb 0.00 in0.0 mm 0.00 in0.0 mm 0.00 in0.0 mm
08:55 AM 50.6°F10.3°C -0.3°F-17.9°C 12% 6.0 mph SSE9.7 kmh SSE 15.0 mph24.1 kmh 29.88 in1011.9 mb 0.00 in0.0 mm 0.00 in0.0 mm 0.00 in0.0 mm
08:50 AM 50.3°F10.2°C -4.3°F-20.2°C 10% 8.0 mph S12.9 kmh S 15.0 mph24.1 kmh 29.88 in1011.9 mb 0.00 in0.0 mm 0.00 in0.0 mm 0.00 in0.0 mm
08:45 AM 49.9°F9.9°C -6.8°F-21.6°C 9% 8.0 mph S12.9 kmh S 16.0 mph25.7 kmh 29.88 in1011.9 mb 0.00 in0.0 mm 0.00 in0.0 mm 0.00 in0.0 mm
08:40 AM 49.2°F9.6°C -15.5°F-26.4°C 6% 7.0 mph S11.3 kmh S 16.0 mph25.7 kmh 29.88 in1011.9 mb 0.00 in0.0 mm 0.00 in0.0 mm 0.00 in0.0 mm
08:35 AM 48.7°F9.3°C -19.5°F-28.6°C 5% 7.0 mph S11.3 kmh S 14.0 mph22.5 kmh 29.88 in1011.9 mb 0.00 in0.0 mm 0.00 in0.0 mm 0.00 in0.0 mm
08:30 AM 48.3°F9.1°C -29.4°F-34.1°C 3% 7.0 mph S11.3 kmh S 14.0 mph22.5 kmh 29.88 in1011.9 mb 0.00 in0.0 mm 0.00 in0.0 mm 0.00 in0.0 mm
08:25 AM 47.9°F8.8°C -36.9°F-38.3°C 2% 8.0 mph S12.9 kmh S 15.0 mph24.1 kmh 29.88 in1011.9 mb 0.00 in0.0 mm 0.00 in0.0 mm 0.00 in0.0 mm
08:20 AM 47.5°F8.6°C -49.0°F-45.0°C 1% 9.0 mph S14.5 kmh S 16.0 mph25.7 kmh 29.88 in1011.9 mb 0.00 in0.0 mm 0.00 in0.0 mm 0.00 in0.0 mm
08:15 AM 47.1°F8.4°C -49.3°F-45.2°C 1% 9.0 mph SSE14.5 kmh SSE 17.0 mph27.4 kmh 29.88 in1011.9 mb 0.00 in0.0 mm 0.00 in0.0 mm 0.00 in0.0 mm
08:10 AM 46.6°F8.1°C -49.6°F-45.3°C 1% 9.0 mph SSE14.5 kmh SSE 17.0 mph27.4 kmh 29.87 in1011.5 mb 0.00 in0.0 mm 0.00 in0.0 mm 0.00 in0.0 mm
08:05 AM 46.1°F7.8°C -49.9°F-45.5°C 1% 8.0 mph SSE12.9 kmh SSE 15.0 mph24.1 kmh 29.87 in1011.5 mb 0.00 in0.0 mm 0.00 in0.0 mm 0.00 in0.0 mm
08:00 AM 45.7°F7.6°C -50.1°F-45.6°C 1% 7.0 mph SSE11.3 kmh SSE 15.0 mph24.1 kmh 29.87 in1011.5 mb 0.00 in0.0 mm 0.00 in0.0 mm 0.00 in0.0 mm
07:55 AM 45.4°F7.4°C -50.3°F-45.7°C 1% 7.0 mph SSE11.3 kmh SSE 14.0 mph22.5 kmh 29.88 in1011.9 mb 0.00 in0.0 mm 0.00 in0.0 mm 0.00 in0.0 mm
07:50 AM 45.2°F7.3°C -50.4°F-45.8°C 1% 8.0 mph SSE12.9 kmh SSE 14.0 mph22.5 kmh 29.88 in1011.9 mb 0.00 in0.0 mm 0.00 in0.0 mm 0.00 in0.0 mm
07:45 AM 45.1°F7.3°C -50.5°F-45.8°C 1% 9.0 mph SSE14.5 kmh SSE 17.0 mph27.4 kmh 29.88 in1011.9 mb 0.00 in0.0 mm 0.00 in0.0 mm 0.00 in0.0 mm
07:40 AM 45.0°F7.2°C -50.6°F-45.9°C 1% 9.0 mph SSE14.5 kmh SSE 20.0 mph32.2 kmh 29.88 in1011.9 mb 0.00 in0.0 mm 0.00 in0.0 mm 0.00 in0.0 mm
07:35 AM 45.1°F7.3°C -50.5°F-45.8°C 1% 9.0 mph SSE14.5 kmh SSE 20.0 mph32.2 kmh 29.88 in1011.9 mb 0.00 in0.0 mm 0.00 in0.0 mm 0.00 in0.0 mm
07:30 AM 45.2°F7.3°C -50.4°F-45.8°C 1% 9.0 mph SSE14.5 kmh SSE 17.0 mph27.4 kmh 29.88 in1011.9 mb 0.00 in0.0 mm 0.00 in0.0 mm 0.00 in0.0 mm
07:25 AM 45.2°F7.3°C -50.4°F-45.8°C 1% 10.0 mph SSE16.1 kmh SSE 17.0 mph27.4 kmh 29.88 in1011.9 mb 0.00 in0.0 mm 0.00 in0.0 mm 0.00 in0.0 mm
07:20 AM 45.2°F7.3°C -50.4°F-45.8°C 1% 11.0 mph S17.7 kmh S 20.0 mph32.2 kmh 29.88 in1011.9 mb 0.00 in0.0 mm 0.00 in0.0 mm 0.00 in0.0 mm
07:15 AM 45.2°F7.3°C -50.4°F-45.8°C 1% 11.0 mph S17.7 kmh S 20.0 mph32.2 kmh 29.89 in1012.2 mb 0.00 in0.0 mm 0.00 in0.0 mm 0.00 in0.0 mm
07:10 AM 45.1°F7.3°C -50.5°F-45.8°C 1% 11.0 mph S17.7 kmh S 18.0 mph29.0 kmh 29.89 in1012.2 mb 0.00 in0.0 mm 0.00 in0.0 mm 0.00 in0.0 mm
07:05 AM 45.1°F7.3°C -50.5°F-45.8°C 1% 12.0 mph S19.3 kmh S 18.0 mph29.0 kmh 29.89 in1012.2 mb 0.00 in0.0 mm 0.00 in0.0 mm 0.00 in0.0 mm
07:00 AM 45.1°F7.3°C -50.5°F-45.8°C 1% 12.0 mph S19.3 kmh S 18.0 mph29.0 kmh 29.89 in1012.2 mb 0.00 in0.0 mm 0.00 in0.0 mm 0.00 in0.0 mm
06:55 AM 45.2°F7.3°C -50.4°F-45.8°C 1% 13.0 mph S20.9 kmh S 19.0 mph30.6 kmh 29.89 in1012.2 mb 0.00 in0.0 mm 0.00 in0.0 mm 0.00 in0.0 mm
06:50 AM 45.1°F7.3°C -50.5°F-45.8°C 1% 12.0 mph S19.3 kmh S 19.0 mph30.6 kmh 29.89 in1012.2 mb 0.00 in0.0 mm 0.00 in0.0 mm 0.00 in0.0 mm
06:45 AM 45.1°F7.3°C -50.5°F-45.8°C 1% 12.0 mph S19.3 kmh S 18.0 mph29.0 kmh 29.89 in1012.2 mb 0.00 in0.0 mm 0.00 in0.0 mm 0.00 in0.0 mm
06:40 AM 45.0°F7.2°C -50.6°F-45.9°C 1% 11.0 mph S17.7 kmh S 18.0 mph29.0 kmh 29.89 in1012.2 mb 0.00 in0.0 mm 0.00 in0.0 mm 0.00 in0.0 mm
06:35 AM 45.1°F7.3°C -50.5°F-45.8°C 1% 11.0 mph S17.7 kmh S 19.0 mph30.6 kmh 29.89 in1012.2 mb 0.00 in0.0 mm 0.00 in0.0 mm 0.00 in0.0 mm
06:30 AM 45.2°F7.3°C -50.4°F-45.8°C 1% 12.0 mph S19.3 kmh S 19.0 mph30.6 kmh 29.89 in1012.2 mb 0.00 in0.0 mm 0.00 in0.0 mm 0.00 in0.0 mm
06:25 AM 45.4°F7.4°C -50.3°F-45.7°C 1% 11.0 mph S17.7 kmh S 18.0 mph29.0 kmh 29.90 in1012.5 mb 0.00 in0.0 mm 0.00 in0.0 mm 0.00 in0.0 mm
06:20 AM 45.5°F7.5°C -50.2°F-45.7°C 1% 12.0 mph S19.3 kmh S 19.0 mph30.6 kmh 29.90 in1012.5 mb 0.00 in0.0 mm 0.00 in0.0 mm 0.00 in0.0 mm
06:15 AM 45.6°F7.6°C -50.2°F-45.7°C 1% 13.0 mph S20.9 kmh S 19.0 mph30.6 kmh 29.90 in1012.5 mb 0.00 in0.0 mm 0.00 in0.0 mm 0.00 in0.0 mm
06:10 AM 45.7°F7.6°C -50.1°F-45.6°C 1% 13.0 mph S20.9 kmh S 19.0 mph30.6 kmh 29.90 in1012.5 mb 0.00 in0.0 mm 0.00 in0.0 mm 0.00 in0.0 mm
06:05 AM 45.7°F7.6°C -50.1°F-45.6°C 1% 13.0 mph S20.9 kmh S 18.0 mph29.0 kmh 29.90 in1012.5 mb 0.00 in0.0 mm 0.00 in0.0 mm 0.00 in0.0 mm
06:00 AM 45.7°F7.6°C -50.1°F-45.6°C 1% 12.0 mph S19.3 kmh S 17.0 mph27.4 kmh 29.91 in1012.9 mb 0.00 in0.0 mm 0.00 in0.0 mm 0.00 in0.0 mm
05:55 AM 45.9°F7.7°C -50.0°F-45.6°C 1% 12.0 mph S19.3 kmh S 17.0 mph27.4 kmh 29.91 in1012.9 mb 0.00 in0.0 mm 0.00 in0.0 mm 0.00 in0.0 mm
05:50 AM 46.0°F7.8°C -49.9°F-45.5°C 1% 11.0 mph S17.7 kmh S 19.0 mph30.6 kmh 29.91 in1012.9 mb 0.00 in0.0 mm 0.00 in0.0 mm 0.00 in0.0 mm
05:45 AM 46.1°F7.8°C -49.9°F-45.5°C 1% 12.0 mph S19.3 kmh S 19.0 mph30.6 kmh 29.91 in1012.9 mb 0.00 in0.0 mm 0.00 in0.0 mm 0.00 in0.0 mm
05:40 AM 46.2°F7.9°C -49.8°F-45.4°C 1% 13.0 mph S20.9 kmh S 21.0 mph33.8 kmh 29.91 in1012.9 mb 0.00 in0.0 mm 0.00 in0.0 mm 0.00 in0.0 mm
05:35 AM 46.2°F7.9°C -49.8°F-45.4°C 1% 13.0 mph S20.9 kmh S 23.0 mph37.0 kmh 29.91 in1012.9 mb 0.00 in0.0 mm 0.00 in0.0 mm 0.00 in0.0 mm
05:30 AM 46.2°F7.9°C -49.8°F-45.4°C 1% 13.0 mph S20.9 kmh S 23.0 mph37.0 kmh 29.91 in1012.9 mb 0.00 in0.0 mm 0.00 in0.0 mm 0.00 in0.0 mm
05:25 AM 46.3°F7.9°C -49.7°F-45.4°C 1% 13.0 mph S20.9 kmh S 19.0 mph30.6 kmh 29.92 in1013.2 mb 0.00 in0.0 mm 0.00 in0.0 mm 0.00 in0.0 mm
05:20 AM 46.4°F8.0°C -49.7°F-45.4°C 1% 13.0 mph S20.9 kmh S 23.0 mph37.0 kmh 29.92 in1013.2 mb 0.00 in0.0 mm 0.00 in0.0 mm 0.00 in0.0 mm
05:15 AM 46.4°F8.0°C -49.7°F-45.4°C 1% 12.0 mph S19.3 kmh S 23.0 mph37.0 kmh 29.92 in1013.2 mb 0.00 in0.0 mm 0.00 in0.0 mm 0.00 in0.0 mm
05:10 AM 46.5°F8.1°C -49.6°F-45.3°C 1% 12.0 mph S19.3 kmh S 20.0 mph32.2 kmh 29.92 in1013.2 mb 0.00 in0.0 mm 0.00 in0.0 mm 0.00 in0.0 mm
05:05 AM 46.5°F8.1°C -49.6°F-45.3°C 1% 12.0 mph S19.3 kmh S 19.0 mph30.6 kmh 29.92 in1013.2 mb 0.00 in0.0 mm 0.00 in0.0 mm 0.00 in0.0 mm
05:00 AM 46.6°F8.1°C -49.6°F-45.3°C 1% 12.0 mph S19.3 kmh S 19.0 mph30.6 kmh 29.93 in1013.5 mb 0.00 in0.0 mm 0.00 in0.0 mm 0.00 in0.0 mm
04:55 AM 46.5°F8.1°C -49.6°F-45.3°C 1% 12.0 mph S19.3 kmh S 18.0 mph29.0 kmh 29.93 in1013.5 mb 0.00 in0.0 mm 0.00 in0.0 mm 0.00 in0.0 mm
04:50 AM 46.6°F8.1°C -49.6°F-45.3°C 1% 12.0 mph S19.3 kmh S 19.0 mph30.6 kmh 29.93 in1013.5 mb 0.00 in0.0 mm 0.00 in0.0 mm 0.00 in0.0 mm
04:45 AM 46.7°F8.2°C -49.5°F-45.3°C 1% 12.0 mph S19.3 kmh S 24.0 mph38.6 kmh 29.93 in1013.5 mb 0.00 in0.0 mm 0.00 in0.0 mm 0.00 in0.0 mm
04:40 AM 46.7°F8.2°C -49.5°F-45.3°C 1% 13.0 mph S20.9 kmh S 24.0 mph38.6 kmh 29.93 in1013.5 mb 0.00 in0.0 mm 0.00 in0.0 mm 0.00 in0.0 mm
04:35 AM 46.8°F8.2°C -49.4°F-45.2°C 1% 14.0 mph S22.5 kmh S 22.0 mph35.4 kmh 29.93 in1013.5 mb 0.00 in0.0 mm 0.00 in0.0 mm 0.00 in0.0 mm
04:30 AM 46.7°F8.2°C -49.5°F-45.3°C 1% 14.0 mph S22.5 kmh S 22.0 mph35.4 kmh 29.93 in1013.5 mb 0.00 in0.0 mm 0.00 in0.0 mm 0.00 in0.0 mm
04:25 AM 46.6°F8.1°C -49.6°F-45.3°C 1% 13.0 mph S20.9 kmh S 21.0 mph33.8 kmh 29.93 in1013.5 mb 0.00 in0.0 mm 0.00 in0.0 mm 0.00 in0.0 mm
04:20 AM 46.6°F8.1°C -49.6°F-45.3°C 1% 13.0 mph S20.9 kmh S 21.0 mph33.8 kmh 29.93 in1013.5 mb 0.00 in0.0 mm 0.00 in0.0 mm 0.00 in0.0 mm
04:15 AM 46.5°F8.1°C -49.6°F-45.3°C 1% 12.0 mph S19.3 kmh S 18.0 mph29.0 kmh 29.94 in1013.9 mb 0.00 in0.0 mm 0.00 in0.0 mm 0.00 in0.0 mm
04:10 AM 46.5°F8.1°C -49.6°F-45.3°C 1% 11.0 mph S17.7 kmh S 17.0 mph27.4 kmh 29.94 in1013.9 mb 0.00 in0.0 mm 0.00 in0.0 mm 0.00 in0.0 mm
04:00 AM 46.6°F8.1°C -49.6°F-45.3°C 1% 11.0 mph S17.7 kmh S 20.0 mph32.2 kmh 29.94 in1013.9 mb 0.00 in0.0 mm 0.00 in0.0 mm 0.00 in0.0 mm
03:55 AM 46.6°F8.1°C -49.6°F-45.3°C 1% 10.0 mph S16.1 kmh S 20.0 mph32.2 kmh 29.95 in1014.2 mb 0.00 in0.0 mm 0.00 in0.0 mm 0.00 in0.0 mm
03:50 AM 46.7°F8.2°C -49.5°F-45.3°C 1% 10.0 mph S16.1 kmh S 15.0 mph24.1 kmh 29.95 in1014.2 mb 0.00 in0.0 mm 0.00 in0.0 mm 0.00 in0.0 mm
03:45 AM 46.9°F8.3°C -49.4°F-45.2°C 1% 10.0 mph S16.1 kmh S 15.0 mph24.1 kmh 29.95 in1014.2 mb 0.00 in0.0 mm 0.00 in0.0 mm 0.00 in0.0 mm
03:40 AM 47.0°F8.3°C -49.3°F-45.2°C 1% 11.0 mph S17.7 kmh S 18.0 mph29.0 kmh 29.95 in1014.2 mb 0.00 in0.0 mm 0.00 in0.0 mm 0.00 in0.0 mm
03:35 AM 47.2°F8.4°C -49.2°F-45.1°C 1% 10.0 mph S16.1 kmh S 18.0 mph29.0 kmh 29.96 in1014.6 mb 0.00 in0.0 mm 0.00 in0.0 mm 0.00 in0.0 mm
03:30 AM 47.2°F8.4°C -49.2°F-45.1°C 1% 10.0 mph S16.1 kmh S 20.0 mph32.2 kmh 29.96 in1014.6 mb 0.00 in0.0 mm 0.00 in0.0 mm 0.00 in0.0 mm
03:25 AM 47.4°F8.6°C -49.1°F-45.1°C 1% 11.0 mph S17.7 kmh S 20.0 mph32.2 kmh 29.96 in1014.6 mb 0.00 in0.0 mm 0.00 in0.0 mm 0.00 in0.0 mm
03:20 AM 47.5°F8.6°C -49.0°F-45.0°C 1% 11.0 mph S17.7 kmh S 18.0 mph29.0 kmh 29.97 in1014.9 mb 0.00 in0.0 mm 0.00 in0.0 mm 0.00 in0.0 mm
03:15 AM 47.6°F8.7°C -48.9°F-44.9°C 1% 10.0 mph S16.1 kmh S 18.0 mph29.0 kmh 29.97 in1014.9 mb 0.00 in0.0 mm 0.00 in0.0 mm 0.00 in0.0 mm
03:10 AM 47.8°F8.8°C -48.8°F-44.9°C 1% 10.0 mph S16.1 kmh S 18.0 mph29.0 kmh 29.97 in1014.9 mb 0.00 in0.0 mm 0.00 in0.0 mm 0.00 in0.0 mm
03:05 AM 47.9°F8.8°C -48.8°F-44.9°C 1% 9.0 mph SSW14.5 kmh SSW 18.0 mph29.0 kmh 29.97 in1014.9 mb 0.00 in0.0 mm 0.00 in0.0 mm 0.00 in0.0 mm
03:00 AM 48.1°F8.9°C -48.6°F-44.8°C 1% 9.0 mph SSW14.5 kmh SSW 16.0 mph25.7 kmh 29.98 in1015.2 mb 0.00 in0.0 mm 0.00 in0.0 mm 0.00 in0.0 mm
02:55 AM 48.3°F9.1°C -48.5°F-44.7°C 1% 10.0 mph SSW16.1 kmh SSW 17.0 mph27.4 kmh 29.98 in1015.2 mb 0.00 in0.0 mm 0.00 in0.0 mm 0.00 in0.0 mm
02:50 AM 48.4°F9.1°C -48.4°F-44.7°C 1% 10.0 mph SSW16.1 kmh SSW 17.0 mph27.4 kmh 29.98 in1015.2 mb 0.00 in0.0 mm 0.00 in0.0 mm 0.00 in0.0 mm
02:45 AM 48.4°F9.1°C -48.4°F-44.7°C 1% 10.0 mph SSW16.1 kmh SSW 16.0 mph25.7 kmh 29.98 in1015.2 mb 0.00 in0.0 mm 0.00 in0.0 mm 0.00 in0.0 mm
02:40 AM 48.6°F9.2°C -48.3°F-44.6°C 1% 10.0 mph S16.1 kmh S 16.0 mph25.7 kmh 29.99 in1015.6 mb 0.00 in0.0 mm 0.00 in0.0 mm 0.00 in0.0 mm
02:35 AM 48.6°F9.2°C -48.3°F-44.6°C 1% 12.0 mph S19.3 kmh S 21.0 mph33.8 kmh 29.99 in1015.6 mb 0.00 in0.0 mm 0.00 in0.0 mm 0.00 in0.0 mm
02:30 AM 48.6°F9.2°C -48.3°F-44.6°C 1% 13.0 mph S20.9 kmh S 21.0 mph33.8 kmh 29.99 in1015.6 mb 0.00 in0.0 mm 0.00 in0.0 mm 0.00 in0.0 mm
02:25 AM 48.6°F9.2°C -48.3°F-44.6°C 1% 11.0 mph S17.7 kmh S 20.0 mph32.2 kmh 29.99 in1015.6 mb 0.00 in0.0 mm 0.00 in0.0 mm 0.00 in0.0 mm
02:20 AM 48.6°F9.2°C -48.3°F-44.6°C 1% 10.0 mph S16.1 kmh S 20.0 mph32.2 kmh 30.00 in1015.9 mb 0.00 in0.0 mm 0.00 in0.0 mm 0.00 in0.0 mm
02:15 AM 48.7°F9.3°C -48.3°F-44.6°C 1% 10.0 mph S16.1 kmh S 17.0 mph27.4 kmh 30.00 in1015.9 mb 0.00 in0.0 mm 0.00 in0.0 mm 0.00 in0.0 mm
02:10 AM 48.6°F9.2°C -48.3°F-44.6°C 1% 9.0 mph SSW14.5 kmh SSW 16.0 mph25.7 kmh 30.00 in1015.9 mb 0.00 in0.0 mm 0.00 in0.0 mm 0.00 in0.0 mm
02:05 AM 48.5°F9.2°C -48.4°F-44.7°C 1% 8.0 mph SSW12.9 kmh SSW 16.0 mph25.7 kmh 30.00 in1015.9 mb 0.00 in0.0 mm 0.00 in0.0 mm 0.00 in0.0 mm
02:00 AM 48.6°F9.2°C -48.3°F-44.6°C 1% 7.0 mph SSW11.3 kmh SSW 14.0 mph22.5 kmh 30.00 in1015.9 mb 0.00 in0.0 mm 0.00 in0.0 mm 0.00 in0.0 mm
01:55 AM 48.6°F9.2°C -48.3°F-44.6°C 1% 8.0 mph SSW12.9 kmh SSW 16.0 mph25.7 kmh 30.01 in1016.3 mb 0.00 in0.0 mm 0.00 in0.0 mm 0.00 in0.0 mm
01:50 AM 48.6°F9.2°C -48.3°F-44.6°C 1% 8.0 mph SSW12.9 kmh SSW 16.0 mph25.7 kmh 30.01 in1016.3 mb 0.00 in0.0 mm 0.00 in0.0 mm 0.00 in0.0 mm
01:45 AM 48.7°F9.3°C -48.3°F-44.6°C 1% 8.0 mph SW12.9 kmh SW 14.0 mph22.5 kmh 30.01 in1016.3 mb 0.00 in0.0 mm 0.00 in0.0 mm 0.00 in0.0 mm
01:40 AM 48.6°F9.2°C -48.3°F-44.6°C 1% 8.0 mph SSW12.9 kmh SSW 13.0 mph20.9 kmh 30.01 in1016.3 mb 0.00 in0.0 mm 0.00 in0.0 mm 0.00 in0.0 mm
01:35 AM 48.3°F9.1°C -48.5°F-44.7°C 1% 7.0 mph SSW11.3 kmh SSW 13.0 mph20.9 kmh 30.01 in1016.3 mb 0.00 in0.0 mm 0.00 in0.0 mm 0.00 in0.0 mm
01:30 AM 48.2°F9.0°C -48.6°F-44.8°C 1% 8.0 mph S12.9 kmh S 15.0 mph24.1 kmh 30.01 in1016.3 mb 0.00 in0.0 mm 0.00 in0.0 mm 0.00 in0.0 mm
01:25 AM 48.1°F8.9°C -48.6°F-44.8°C 1% 9.0 mph S14.5 kmh S 15.0 mph24.1 kmh 30.01 in1016.3 mb 0.00 in0.0 mm 0.00 in0.0 mm 0.00 in0.0 mm
01:20 AM 47.7°F8.7°C -48.9°F-44.9°C 1% 9.0 mph S14.5 kmh S 15.0 mph24.1 kmh 30.02 in1016.6 mb 0.00 in0.0 mm 0.00 in0.0 mm 0.00 in0.0 mm
01:15 AM 47.2°F8.4°C -49.2°F-45.1°C 1% 8.0 mph S12.9 kmh S 14.0 mph22.5 kmh 30.02 in1016.6 mb 0.00 in0.0 mm 0.00 in0.0 mm 0.00 in0.0 mm
01:05 AM 47.0°F8.3°C -49.3°F-45.2°C 1% 8.0 mph S12.9 kmh S 11.0 mph17.7 kmh 30.02 in1016.6 mb 0.00 in0.0 mm 0.00 in0.0 mm 0.00 in0.0 mm
01:00 AM 46.9°F8.3°C -49.4°F-45.2°C 1% 8.0 mph S12.9 kmh S 11.0 mph17.7 kmh 30.03 in1016.9 mb 0.00 in0.0 mm 0.00 in0.0 mm 0.00 in0.0 mm
12:55 AM 46.8°F8.2°C -49.4°F-45.2°C 1% 6.0 mph SSW9.7 kmh SSW 10.0 mph16.1 kmh 30.03 in1016.9 mb 0.00 in0.0 mm 0.00 in0.0 mm 0.00 in0.0 mm
12:50 AM 46.9°F8.3°C -49.4°F-45.2°C 1% 5.0 mph SSW8.0 kmh SSW 10.0 mph16.1 kmh 30.03 in1016.9 mb 0.00 in0.0 mm 0.00 in0.0 mm 0.00 in0.0 mm
12:45 AM 47.0°F8.3°C -49.3°F-45.2°C 1% 5.0 mph SSW8.0 kmh SSW 7.0 mph11.3 kmh 30.03 in1016.9 mb 0.00 in0.0 mm 0.00 in0.0 mm 0.00 in0.0 mm
12:40 AM 47.1°F8.4°C -49.3°F-45.2°C 1% 4.0 mph SSW6.4 kmh SSW 7.0 mph11.3 kmh 30.03 in1016.9 mb 0.00 in0.0 mm 0.00 in0.0 mm 0.00 in0.0 mm
12:35 AM 47.3°F8.5°C -49.1°F-45.1°C 1% 5.0 mph SSW8.0 kmh SSW 8.0 mph12.9 kmh 30.04 in1017.3 mb 0.00 in0.0 mm 0.00 in0.0 mm 0.00 in0.0 mm
12:30 AM 47.5°F8.6°C -49.0°F-45.0°C 1% 6.0 mph SSW9.7 kmh SSW 12.0 mph19.3 kmh 30.04 in1017.3 mb 0.00 in0.0 mm 0.00 in0.0 mm 0.00 in0.0 mm
12:25 AM 47.8°F8.8°C -48.8°F-44.9°C 1% 8.0 mph S12.9 kmh S 12.0 mph19.3 kmh 30.04 in1017.3 mb 0.00 in0.0 mm 0.00 in0.0 mm 0.00 in0.0 mm
12:20 AM 47.9°F8.8°C -48.8°F-44.9°C 1% 8.0 mph S12.9 kmh S 11.0 mph17.7 kmh 30.05 in1017.6 mb 0.00 in0.0 mm 0.00 in0.0 mm 0.00 in0.0 mm
12:15 AM 48.1°F8.9°C -48.6°F-44.8°C 1% 8.0 mph S12.9 kmh S 13.0 mph20.9 kmh 30.05 in1017.6 mb 0.00 in0.0 mm 0.00 in0.0 mm 0.00 in0.0 mm
12:10 AM 48.2°F9.0°C -48.6°F-44.8°C 1% 8.0 mph S12.9 kmh S 13.0 mph20.9 kmh 30.05 in1017.6 mb 0.00 in0.0 mm 0.00 in0.0 mm 0.00 in0.0 mm
12:05 AM 48.3°F9.1°C -48.5°F-44.7°C 1% 7.0 mph S11.3 kmh S 12.0 mph19.3 kmh 30.05 in1017.6 mb 0.00 in0.0 mm 0.00 in0.0 mm 0.00 in0.0 mm
12:00 AM 48.3°F9.1°C -48.5°F-44.7°C 1% 6.0 mph SSW9.7 kmh SSW 12.0 mph19.3 kmh 30.05 in1017.6 mb 0.00 in0.0 mm 0.00 in0.0 mm 0.00 in0.0 mm